Time;durP1;ratioP1;P1;durP2;ratioP2;P2;SDS_P1;SDS_P2;PMS_P1;PMS_P2;Temp;Humidity;BMP_temperature;BMP_pressure;BME280_temperature;BME280_humidity;BME280_pressure;Samples;Min_cycle;Max_cycle;Signal;HPM_P1;HPM_P2
2022/09/04 00:01:58;;;;;;;;;;;16.70;99.90;;;;;;5096281;28;20002;-63
2022/09/04 00:04:42;;;;;;;;;;;16.70;99.90;;;;;;5096274;28;19912;-63
2022/09/04 00:07:28;;;;;;;;;;;16.70;99.90;;;;;;5096341;28;19957;-63
2022/09/04 00:12:37;;;;;;;;;;;16.60;99.90;;;;;;5071019;28;19913;-62
2022/09/04 00:15:09;;;;;;;;;;;16.60;99.90;;;;;;5071228;28;19935;-62
2022/09/04 00:17:40;;;;;;;;;;;16.60;99.90;;;;;;5071202;28;20390;-62
2022/09/04 00:20:11;;;;;;;;;;;16.60;99.90;;;;;;5070882;28;19916;-62
2022/09/04 00:22:57;;;;;;;;;;;16.50;99.90;;;;;;5071064;28;20399;-62
2022/09/04 00:25:32;;;;;;;;;;;16.50;99.90;;;;;;5069315;28;19908;-62
2022/09/04 00:28:03;;;;;;;;;;;16.60;99.90;;;;;;5070959;28;19909;-62
2022/09/04 00:30:49;;;;;;;;;;;16.60;99.90;;;;;;5070815;28;19970;-62
2022/09/04 00:33:22;;;;;;;;;;;16.60;99.90;;;;;;5070838;28;19909;-62
2022/09/04 00:35:50;;;;;;;;;;;16.60;99.90;;;;;;5070818;28;19931;-62
2022/09/04 00:38:33;;;;;;;;;;;16.50;99.90;;;;;;5070791;28;20455;-62
2022/09/04 00:41:05;;;;;;;;;;;16.50;99.90;;;;;;5070771;28;20367;-63
2022/09/04 00:43:51;;;;;;;;;;;16.50;99.90;;;;;;5070376;28;19908;-62
2022/09/04 00:46:36;;;;;;;;;;;16.40;99.90;;;;;;5070341;28;20383;-63
2022/09/04 00:49:22;;;;;;;;;;;16.40;99.90;;;;;;5070198;28;20264;-63
2022/09/04 00:51:53;;;;;;;;;;;16.30;99.90;;;;;;5070118;28;19913;-62
2022/09/04 00:54:39;;;;;;;;;;;16.20;99.90;;;;;;5070424;28;19954;-63
2022/09/04 00:57:24;;;;;;;;;;;16.20;99.90;;;;;;5070063;28;20391;-63
2022/09/04 00:59:59;;;;;;;;;;;16.20;99.90;;;;;;5069984;28;20338;-62
2022/09/04 01:05:43;;;;;;;;;;;16.00;99.90;;;;;;5071114;28;19912;-62
2022/09/04 01:08:28;;;;;;;;;;;16.00;99.90;;;;;;5070860;28;19940;-62
2022/09/04 01:11:03;;;;;;;;;;;15.90;99.90;;;;;;5070947;28;19908;-62
2022/09/04 01:13:41;;;;;;;;;;;15.90;99.90;;;;;;5071114;28;20003;-63
2022/09/04 01:16:10;;;;;;;;;;;15.90;99.90;;;;;;5071043;28;19908;-63
2022/09/04 01:18:55;;;;;;;;;;;15.80;99.90;;;;;;5070978;28;19959;-62
2022/09/04 01:21:41;;;;;;;;;;;15.80;99.90;;;;;;5070610;28;19909;-63
2022/09/04 01:24:17;;;;;;;;;;;15.80;99.90;;;;;;5070581;28;19913;-62
2022/09/04 01:26:46;;;;;;;;;;;15.80;99.90;;;;;;5070576;28;20012;-62
2022/09/04 01:29:22;;;;;;;;;;;15.80;99.90;;;;;;5070742;28;19919;-62
2022/09/04 01:34:33;;;;;;;;;;;15.80;99.90;;;;;;5071098;28;19913;-63
2022/09/04 01:37:05;;;;;;;;;;;15.70;99.90;;;;;;5071276;28;20011;-63
2022/09/04 01:39:32;;;;;;;;;;;15.70;99.90;;;;;;5071141;28;19908;-63
2022/09/04 01:42:11;;;;;;;;;;;15.50;99.90;;;;;;5071118;28;19919;-63
2022/09/04 01:44:36;;;;;;;;;;;15.50;99.90;;;;;;5069640;28;19915;-63
2022/09/04 01:47:22;;;;;;;;;;;15.40;99.90;;;;;;5069566;28;20434;-63
2022/09/04 01:50:07;;;;;;;;;;;15.30;99.90;;;;;;5070674;28;20429;-63
2022/09/04 01:52:35;;;;;;;;;;;;;;;;;;5070514;28;20409;-63
2022/09/04 01:55:12;;;;;;;;;;;15.20;99.90;;;;;;5070845;28;19916;-62
2022/09/04 01:57:57;;;;;;;;;;;15.10;99.90;;;;;;5070532;28;19935;-63
2022/09/04 02:00:24;;;;;;;;;;;15.00;99.90;;;;;;5070478;28;19909;-63
2022/09/04 02:03:09;;;;;;;;;;;15.00;99.90;;;;;;5070713;28;19909;-63
2022/09/04 02:05:55;;;;;;;;;;;14.90;99.90;;;;;;5070387;28;19909;-63
2022/09/04 02:08:40;;;;;;;;;;;14.90;99.90;;;;;;5070304;28;19959;-63
2022/09/04 02:11:08;;;;;;;;;;;14.80;99.90;;;;;;5070266;28;20011;-63
2022/09/04 02:13:39;;;;;;;;;;;14.70;99.90;;;;;;5070145;28;19920;-62
2022/09/04 02:16:25;;;;;;;;;;;14.70;99.90;;;;;;5086144;28;19944;-63
2022/09/04 02:19:04;;;;;;;;;;;14.70;99.90;;;;;;5070028;28;20378;-63
2022/09/04 02:21:34;;;;;;;;;;;14.70;99.90;;;;;;5070050;28;20006;-63
2022/09/04 02:24:07;;;;;;;;;;;14.60;99.90;;;;;;5070274;28;20389;-63
2022/09/04 02:26:36;;;;;;;;;;;14.60;99.90;;;;;;5085723;28;19959;-63
2022/09/04 02:29:11;;;;;;;;;;;14.60;99.90;;;;;;5070147;28;19909;-62
2022/09/04 02:31:45;;;;;;;;;;;14.60;99.90;;;;;;5069826;28;19909;-63
2022/09/04 02:34:18;;;;;;;;;;;14.60;99.90;;;;;;5088057;28;19924;-62
2022/09/04 02:36:55;;;;;;;;;;;14.50;99.90;;;;;;5090040;28;19908;-63
2022/09/04 02:42:22;;;;;;;;;;;14.50;99.90;;;;;;5071063;28;20287;-62
2022/09/04 02:44:59;;;;;;;;;;;14.40;99.90;;;;;;5071019;28;20522;-62
2022/09/04 02:47:32;;;;;;;;;;;14.40;99.90;;;;;;5103785;28;20428;-62
2022/09/04 02:50:17;;;;;;;;;;;14.30;99.90;;;;;;5070882;28;19952;-62
2022/09/04 02:52:54;;;;;;;;;;;14.30;99.90;;;;;;5070837;28;20016;-62
2022/09/04 02:55:43;;;;;;;;;;;14.40;99.90;;;;;;5069498;28;19916;-62
2022/09/04 02:58:21;;;;;;;;;;;14.40;99.90;;;;;;5070672;28;19913;-63
2022/09/04 03:01:07;;;;;;;;;;;14.40;99.90;;;;;;5070844;28;20379;-62
2022/09/04 03:03:39;;;;;;;;;;;14.50;99.90;;;;;;5070641;28;20375;-62
2022/09/04 03:06:08;;;;;;;;;;;14.50;99.90;;;;;;5070824;28;19916;-62
2022/09/04 03:08:36;;;;;;;;;;;14.50;99.90;;;;;;5070418;28;19913;-62
2022/09/04 03:11:10;;;;;;;;;;;14.60;99.90;;;;;;5103286;28;19909;-62
2022/09/04 03:13:55;;;;;;;;;;;14.50;99.90;;;;;;5070653;28;19908;-62
2022/09/04 03:16:25;;;;;;;;;;;14.50;99.90;;;;;;5070321;28;19962;-62
2022/09/04 03:18:53;;;;;;;;;;;14.50;99.90;;;;;;5070295;28;19963;-62
2022/09/04 03:21:24;;;;;;;;;;;14.50;99.90;;;;;;5070399;28;20371;-62
2022/09/04 03:23:53;;;;;;;;;;;14.50;99.90;;;;;;5068923;28;19909;-62
2022/09/04 03:26:20;;;;;;;;;;;14.40;99.90;;;;;;5070412;28;19909;-62
2022/09/04 03:28:59;;;;;;;;;;;14.40;99.90;;;;;;5070368;28;19909;-62
2022/09/04 03:31:31;;;;;;;;;;;14.30;99.90;;;;;;5102748;28;19909;-62
2022/09/04 03:34:02;;;;;;;;;;;14.30;99.90;;;;;;5070255;28;20264;-62
2022/09/04 03:36:48;;;;;;;;;;;14.20;99.90;;;;;;5070165;28;19909;-62
2022/09/04 03:39:25;;;;;;;;;;;14.20;99.90;;;;;;5069778;28;19920;-62
2022/09/04 03:42:10;;;;;;;;;;;14.20;99.90;;;;;;5102254;28;19925;-62
2022/09/04 03:44:56;;;;;;;;;;;14.20;99.90;;;;;;5069738;28;20371;-62
2022/09/04 03:47:41;;;;;;;;;;;14.20;99.90;;;;;;5069735;28;19916;-62
2022/09/04 03:50:16;;;;;;;;;;;14.10;99.90;;;;;;5069724;28;19939;-61
2022/09/04 03:53:02;;;;;;;;;;;14.00;99.90;;;;;;5060348;28;19923;-62
2022/09/04 03:55:33;;;;;;;;;;;14.00;99.90;;;;;;5056440;28;19909;-62
2022/09/04 04:00:44;;;;;;;;;;;13.90;99.90;;;;;;5071099;28;19935;-62
2022/09/04 04:03:28;;;;;;;;;;;13.80;99.90;;;;;;5070960;28;19952;-63
2022/09/04 04:06:14;;;;;;;;;;;13.80;99.90;;;;;;5071148;28;19935;-63
2022/09/04 04:08:46;;;;;;;;;;;13.70;99.90;;;;;;5070827;28;19920;-62
2022/09/04 04:13:56;;;;;;;;;;;13.70;99.90;;;;;;5173695;27;20009;-63
2022/09/04 04:16:25;;;;;;;;;;;13.70;99.90;;;;;;5173807;27;19911;-63
2022/09/04 04:19:11;;;;;;;;;;;13.60;99.90;;;;;;5173523;27;19914;-63
2022/09/04 04:21:54;;;;;;;;;;;13.60;99.90;;;;;;5173306;27;19950;-63
2022/09/04 04:24:31;;;;;;;;;;;13.60;99.90;;;;;;5173639;27;19954;-62
2022/09/04 04:27:06;;;;;;;;;;;13.60;99.90;;;;;;5173625;27;19918;-62
2022/09/04 04:32:32;;;;;;;;;;;13.60;99.90;;;;;;5091318;27;20404;-63
2022/09/04 04:35:17;;;;;;;;;;;13.50;99.90;;;;;;5091436;28;20316;-63
2022/09/04 04:37:50;;;;;;;;;;;13.60;99.90;;;;;;5091105;28;19931;-63
2022/09/04 04:40:35;;;;;;;;;;;13.50;99.90;;;;;;5091283;28;19908;-62
2022/09/04 04:43:08;;;;;;;;;;;13.50;99.90;;;;;;5089725;28;19999;-62
2022/09/04 04:45:53;;;;;;;;;;;13.40;99.90;;;;;;5091233;28;20425;-62
2022/09/04 04:48:39;;;;;;;;;;;13.40;99.90;;;;;;5091160;28;20436;-63
2022/09/04 04:51:17;;;;;;;;;;;13.40;99.90;;;;;;5090856;28;20371;-62
2022/09/04 04:53:49;;;;;;;;;;;13.30;99.90;;;;;;5091039;28;19999;-62
2022/09/04 04:56:35;;;;;;;;;;;13.30;99.90;;;;;;5091019;28;19958;-62
2022/09/04 04:59:05;;;;;;;;;;;13.30;99.90;;;;;;5090802;28;19916;-63
2022/09/04 05:01:38;;;;;;;;;;;13.30;99.90;;;;;;5090754;28;19955;-63
2022/09/04 05:04:23;;;;;;;;;;;13.30;99.90;;;;;;5090816;28;19916;-63
2022/09/04 05:07:09;;;;;;;;;;;13.30;99.90;;;;;;5090780;28;19948;-62
2022/09/04 05:09:54;;;;;;;;;;;13.40;99.90;;;;;;5117933;28;19977;-62
2022/09/04 05:12:39;;;;;;;;;;;13.50;99.90;;;;;;5090445;28;19919;-62
2022/09/04 05:15:17;;;;;;;;;;;13.60;99.90;;;;;;5090482;28;19944;-63
2022/09/04 05:17:48;;;;;;;;;;;13.70;99.90;;;;;;5090340;28;19995;-63
2022/09/04 05:20:19;;;;;;;;;;;13.80;99.90;;;;;;5089075;28;19995;-63
2022/09/04 05:22:48;;;;;;;;;;;14.00;99.90;;;;;;5090564;28;19959;-62
2022/09/04 05:25:17;;;;;;;;;;;14.10;99.90;;;;;;5090211;28;19915;-63
2022/09/04 05:27:55;;;;;;;;;;;14.20;99.90;;;;;;5090439;28;19916;-62
2022/09/04 05:30:40;;;;;;;;;;;14.40;99.90;;;;;;5093772;28;19923;-63
2022/09/04 05:33:16;;;;;;;;;;;14.50;99.90;;;;;;5110267;28;19908;-63
2022/09/04 05:35:48;;;;;;;;;;;14.60;99.90;;;;;;5110292;28;20053;-63
2022/09/04 05:38:34;;;;;;;;;;;14.70;99.90;;;;;;5110550;28;19908;-62
2022/09/04 05:41:05;;;;;;;;;;;14.70;99.90;;;;;;5110220;28;20370;-63
2022/09/04 05:46:24;;;;;;;;;;;15.00;99.90;;;;;;5071033;28;19913;-62
2022/09/04 05:49:09;;;;;;;;;;;15.20;99.90;;;;;;5070948;28;19928;-62
2022/09/04 06:00:03;;;;;;;;;;;20.90;99.90;;;;;;5071065;28;19913;-63
2022/09/04 06:02:37;;;;;;;;;;;22.60;99.90;;;;;;5071180;28;19917;-64
2022/09/04 06:05:22;;;;;;;;;;;23.60;99.90;;;;;;5070935;28;19960;-63
2022/09/04 06:07:51;;;;;;;;;;;24.40;97.60;;;;;;5069508;28;19908;-63
2022/09/04 06:10:24;;;;;;;;;;;24.30;96.20;;;;;;5070782;28;19948;-63
2022/09/04 06:13:08;;;;;;;;;;;24.50;95.10;;;;;;5070977;28;19908;-63
2022/09/04 06:15:53;;;;;;;;;;;25.10;94.30;;;;;;5070966;28;19909;-63
2022/09/04 06:18:38;;;;;;;;;;;25.50;92.50;;;;;;5070557;28;19913;-60
2022/09/04 06:21:18;;;;;;;;;;;25.40;92.20;;;;;;5070505;28;19909;-62
2022/09/04 06:23:52;;;;;;;;;;;26.00;91.60;;;;;;5070837;28;19908;-62
2022/09/04 06:26:38;;;;;;;;;;;26.30;90.50;;;;;;5070492;28;19909;-63
2022/09/04 06:29:15;;;;;;;;;;;25.60;91.60;;;;;;5069173;28;19966;-62
2022/09/04 06:31:47;;;;;;;;;;;26.50;90.80;;;;;;5070384;28;19909;-63
2022/09/04 06:34:32;;;;;;;;;;;26.90;88.40;;;;;;5070282;28;19916;-63
2022/09/04 06:37:04;;;;;;;;;;;26.40;88.70;;;;;;5070325;28;19944;-62
2022/09/04 06:42:21;;;;;;;;;;;27.10;88.40;;;;;;5070972;28;19919;-61
2022/09/04 06:44:56;;;;;;;;;;;27.50;86.60;;;;;;5070983;28;19927;-61
2022/09/04 06:47:42;;;;;;;;;;;27.10;86.40;;;;;;5071131;28;20355;-61
2022/09/04 06:50:14;;;;;;;;;;;28.10;85.10;;;;;;5070859;28;20349;-63
2022/09/04 06:53:00;;;;;;;;;;;28.20;83.00;;;;;;5071077;28;20393;-64
2022/09/04 06:55:45;;;;;;;;;;;27.80;83.80;;;;;;5070757;28;19913;-61
2022/09/04 06:58:31;;;;;;;;;;;28.40;82.70;;;;;;5070651;28;19999;-63
2022/09/04 07:01:01;;;;;;;;;;;28.70;82.00;;;;;;5070586;28;19916;-63
2022/09/04 07:03:47;;;;;;;;;;;29.00;80.20;;;;;;5070667;28;20405;-63
2022/09/04 07:06:20;;;;;;;;;;;29.10;79.50;;;;;;5070517;28;20337;-63
2022/09/04 07:08:52;;;;;;;;;;;29.50;79.20;;;;;;5070448;28;19909;-63
2022/09/04 07:11:23;;;;;;;;;;;29.00;79.40;;;;;;5070734;28;20402;-63
2022/09/04 07:13:59;;;;;;;;;;;28.60;80.60;;;;;;5070663;28;19915;-64
2022/09/04 07:16:31;;;;;;;;;;;28.80;80.60;;;;;;5070605;28;19931;-63
2022/09/04 07:19:12;;;;;;;;;;;29.50;79.10;;;;;;5070290;28;20333;-63
2022/09/04 07:21:48;;;;;;;;;;;29.80;78.60;;;;;;5070400;28;20366;-63
2022/09/04 07:24:34;;;;;;;;;;;29.80;78.20;;;;;;5085810;28;19909;-63
2022/09/04 07:27:05;;;;;;;;;;;29.90;78.00;;;;;;5070001;28;19962;-64
2022/09/04 07:29:34;;;;;;;;;;;30.70;76.70;;;;;;5070326;28;20382;-64
2022/09/04 07:32:10;;;;;;;;;;;29.80;76.80;;;;;;5070101;28;20294;-64
2022/09/04 07:34:40;;;;;;;;;;;30.30;77.60;;;;;;5069967;28;19908;-64
2022/09/04 07:37:26;;;;;;;;;;;30.40;76.80;;;;;;5070164;28;20363;-64
2022/09/04 07:39:59;;;;;;;;;;;29.70;77.10;;;;;;5069951;28;20291;-63
2022/09/04 07:42:29;;;;;;;;;;;30.10;76.30;;;;;;5090053;28;19908;-64
2022/09/04 07:45:15;;;;;;;;;;;29.10;79.90;;;;;;5089979;28;19908;-62
2022/09/04 07:47:44;;;;;;;;;;;29.40;78.70;;;;;;5089953;28;19913;-62
2022/09/04 07:50:18;;;;;;;;;;;28.10;81.70;;;;;;5090116;28;19912;-66
2022/09/04 07:53:03;;;;;;;;;;;27.60;83.70;;;;;;5080680;28;19958;-64
2022/09/04 07:55:39;;;;;;;;;;;27.80;83.60;;;;;;5076489;28;19912;-63
2022/09/04 07:58:13;;;;;;;;;;;28.40;83.40;;;;;;5076215;28;19912;-63
2022/09/04 08:00:47;;;;;;;;;;;28.50;84.00;;;;;;5076400;28;20379;-63
2022/09/04 08:03:19;;;;;;;;;;;27.70;84.00;;;;;;5076463;28;20397;-63
2022/09/04 08:05:48;;;;;;;;;;;27.50;84.30;;;;;;5076381;28;20428;-63
2022/09/04 08:08:33;;;;;;;;;;;28.40;83.70;;;;;;5075997;28;20066;-63
2022/09/04 08:11:04;;;;;;;;;;;28.50;83.30;;;;;;5075955;28;19916;-63
2022/09/04 08:13:41;;;;;;;;;;;28.80;83.40;;;;;;5076255;28;19923;-63
2022/09/04 08:16:11;;;;;;;;;;;28.50;85.10;;;;;;5076239;28;20393;-64
2022/09/04 08:18:46;;;;;;;;;;;28.70;85.50;;;;;;5075845;28;19908;-63
2022/09/04 08:21:28;;;;;;;;;;;28.10;85.30;;;;;;5075813;28;19920;-63
2022/09/04 08:26:54;;;;;;;;;;;28.80;84.30;;;;;;5071069;28;19919;-63
2022/09/04 08:29:27;;;;;;;;;;;29.00;83.70;;;;;;5070974;28;20395;-63
2022/09/04 08:32:10;;;;;;;;;;;28.20;85.60;;;;;;5069635;28;19908;-63
2022/09/04 08:34:56;;;;;;;;;;;28.10;86.50;;;;;;5071111;28;20330;-63
2022/09/04 08:37:26;;;;;;;;;;;28.30;87.50;;;;;;5070677;28;19913;-63
2022/09/04 08:40:11;;;;;;;;;;;27.90;89.00;;;;;;5071026;28;19944;-63
2022/09/04 08:42:47;;;;;;;;;;;28.50;86.80;;;;;;5069354;28;20410;-63
2022/09/04 08:45:32;;;;;;;;;;;28.20;87.60;;;;;;5070772;28;20284;-63
2022/09/04 08:48:08;;;;;;;;;;;28.70;87.70;;;;;;5070609;28;20260;-63
2022/09/04 08:53:38;;;;;;;;;;;28.70;85.60;;;;;;5070966;28;20286;-63
2022/09/04 08:56:15;;;;;;;;;;;30.10;85.60;;;;;;5070873;28;19912;-63
2022/09/04 08:59:01;;;;;;;;;;;29.80;85.00;;;;;;5070873;28;19978;-63
2022/09/04 09:01:35;;;;;;;;;;;31.00;84.50;;;;;;5070797;28;19913;-63
2022/09/04 09:04:11;;;;;;;;;;;31.20;81.20;;;;;;5086317;28;19956;-63
2022/09/04 09:06:36;;;;;;;;;;;;;;;;;;5069514;28;19909;-63
2022/09/04 09:09:14;;;;;;;;;;;32.20;78.30;;;;;;5070975;28;19909;-62
2022/09/04 09:11:58;;;;;;;;;;;30.30;80.30;;;;;;5070893;28;19917;-62
2022/09/04 09:14:43;;;;;;;;;;;29.90;83.60;;;;;;5070580;28;19909;-63
2022/09/04 09:17:17;;;;;;;;;;;29.40;83.70;;;;;;5070547;28;19908;-63
2022/09/04 09:19:45;;;;;;;;;;;29.50;84.20;;;;;;5070445;28;19959;-63
2022/09/04 09:22:30;;;;;;;;;;;30.20;84.40;;;;;;5070668;28;19917;-63
2022/09/04 09:25:08;;;;;;;;;;;30.10;82.90;;;;;;5070331;28;19916;-62
2022/09/04 09:27:52;;;;;;;;;;;29.40;84.50;;;;;;5070593;28;19999;-62
2022/09/04 09:30:19;;;;;;;;;;;30.00;84.00;;;;;;5069039;28;19915;-62
2022/09/04 09:33:05;;;;;;;;;;;31.00;82.30;;;;;;5070403;28;19951;-63
2022/09/04 09:35:51;;;;;;;;;;;31.90;81.50;;;;;;5070181;28;20015;-63
2022/09/04 09:41:30;;;;;;;;;;;32.00;78.50;;;;;;5071059;28;19913;-64
2022/09/04 09:44:16;;;;;;;;;;;31.40;80.20;;;;;;5071197;28;19920;-63
2022/09/04 09:46:42;;;;;;;;;;;;;;;;;;5070868;28;19917;-63
2022/09/04 09:49:16;;;;;;;;;;;30.10;84.10;;;;;;5071137;28;19908;-63
2022/09/04 09:52:01;;;;;;;;;;;29.80;84.10;;;;;;5070771;28;19920;-63
2022/09/04 09:54:47;;;;;;;;;;;30.10;84.80;;;;;;5070718;28;19995;-63
2022/09/04 09:57:32;;;;;;;;;;;30.10;83.10;;;;;;5070722;28;19908;-63
2022/09/04 10:00:04;;;;;;;;;;;30.40;83.80;;;;;;5069192;28;19919;-63
2022/09/04 10:02:50;;;;;;;;;;;31.30;81.50;;;;;;5070536;28;19974;-63
2022/09/04 10:05:28;;;;;;;;;;;32.20;79.80;;;;;;5070498;28;19909;-63
2022/09/04 10:08:14;;;;;;;;;;;31.90;79.00;;;;;;5069221;28;19952;-63
2022/09/04 10:10:59;;;;;;;;;;;31.70;80.70;;;;;;5070491;28;20429;-63
2022/09/04 10:13:45;;;;;;;;;;;31.70;78.80;;;;;;5070316;28;19908;-63
2022/09/04 10:16:19;;;;;;;;;;;31.50;79.60;;;;;;5070339;28;19955;-63
2022/09/04 10:18:55;;;;;;;;;;;31.00;81.20;;;;;;5070195;28;19909;-63
2022/09/04 10:21:34;;;;;;;;;;;31.20;81.00;;;;;;5070464;28;19909;-63
2022/09/04 10:24:10;;;;;;;;;;;31.40;80.00;;;;;;5070390;28;20383;-63
2022/09/04 10:26:44;;;;;;;;;;;30.70;81.10;;;;;;5070297;28;20393;-63
2022/09/04 10:29:29;;;;;;;;;;;30.70;81.50;;;;;;5070252;28;19909;-63
2022/09/04 10:32:05;;;;;;;;;;;30.80;81.60;;;;;;5082994;28;19916;-63
2022/09/04 10:34:37;;;;;;;;;;;31.80;79.70;;;;;;5070187;28;20003;-63
2022/09/04 10:37:22;;;;;;;;;;;32.00;79.60;;;;;;5070062;28;19913;-63
2022/09/04 10:42:58;;;;;;;;;;;30.50;81.10;;;;;;5089830;28;19909;-61
2022/09/04 10:45:31;;;;;;;;;;;29.80;83.20;;;;;;5090213;28;19909;-62
2022/09/04 10:48:09;;;;;;;;;;;29.30;84.20;;;;;;5089909;28;19908;-61
2022/09/04 10:50:55;;;;;;;;;;;29.50;83.20;;;;;;5087536;28;19940;-63
2022/09/04 10:53:41;;;;;;;;;;;29.40;84.50;;;;;;5076313;28;20378;-62
2022/09/04 10:56:15;;;;;;;;;;;29.80;83.10;;;;;;5076180;28;20430;-62
2022/09/04 10:58:56;;;;;;;;;;;29.90;84.10;;;;;;5076304;28;19915;-63
2022/09/04 11:01:34;;;;;;;;;;;29.20;85.90;;;;;;5076487;28;20423;-62
2022/09/04 11:04:13;;;;;;;;;;;29.30;85.20;;;;;;5076379;28;20402;-63
2022/09/04 11:06:58;;;;;;;;;;;30.00;83.20;;;;;;5076132;28;20402;-63
2022/09/04 11:09:32;;;;;;;;;;;30.00;84.10;;;;;;5075952;28;20362;-63
2022/09/04 11:12:08;;;;;;;;;;;30.00;83.90;;;;;;5076009;28;19940;-63
2022/09/04 11:14:53;;;;;;;;;;;29.90;82.50;;;;;;5075974;28;19908;-63
2022/09/04 11:17:31;;;;;;;;;;;30.30;82.30;;;;;;5075821;28;19954;-62
2022/09/04 11:20:17;;;;;;;;;;;29.90;82.60;;;;;;5058199;28;20007;-62
2022/09/04 11:23:03;;;;;;;;;;;29.50;83.30;;;;;;5075724;28;19913;-62
2022/09/04 11:25:50;;;;;;;;;;;28.90;84.90;;;;;;5075598;28;19916;-62
2022/09/04 11:28:39;;;;;;;;;;;28.60;85.80;;;;;;5075605;28;19947;-63
2022/09/04 11:31:25;;;;;;;;;;;28.60;86.40;;;;;;5075727;28;20374;-62
2022/09/04 11:34:12;;;;;;;;;;;28.90;86.30;;;;;;5075778;28;20042;-62
2022/09/04 11:36:58;;;;;;;;;;;28.70;84.90;;;;;;5057546;28;19909;-63
2022/09/04 11:45:27;;;;;;;;;;;29.50;83.70;;;;;;5070967;28;19912;-63
2022/09/04 11:48:13;;;;;;;;;;;29.60;82.00;;;;;;5071216;28;20383;-63
2022/09/04 11:50:46;;;;;;;;;;;29.60;81.30;;;;;;5070839;28;20272;-63
2022/09/04 11:53:24;;;;;;;;;;;29.60;83.00;;;;;;5071105;28;19995;-63
2022/09/04 11:56:09;;;;;;;;;;;30.00;82.50;;;;;;5071027;28;20337;-63
2022/09/04 11:58:55;;;;;;;;;;;30.10;80.80;;;;;;5070724;28;19919;-64
2022/09/04 12:01:34;;;;;;;;;;;29.60;81.70;;;;;;5070664;28;19909;-64
2022/09/04 12:04:13;;;;;;;;;;;30.10;82.10;;;;;;5070523;28;19919;-64
2022/09/04 12:06:50;;;;;;;;;;;30.10;81.50;;;;;;5070819;28;19913;-64
2022/09/04 12:09:26;;;;;;;;;;;30.30;80.60;;;;;;5070482;28;19913;-63
2022/09/04 12:12:06;;;;;;;;;;;29.50;82.00;;;;;;5070722;28;20359;-63
2022/09/04 12:14:52;;;;;;;;;;;29.90;82.90;;;;;;5070643;28;19909;-63
2022/09/04 12:17:37;;;;;;;;;;;29.20;81.80;;;;;;5070274;28;19908;-63
2022/09/04 12:20:13;;;;;;;;;;;29.40;82.10;;;;;;5070287;28;19948;-63
2022/09/04 12:25:27;;;;;;;;;;;30.00;80.60;;;;;;5071068;28;19913;-63
2022/09/04 12:28:03;;;;;;;;;;;29.30;81.60;;;;;;5070981;28;19920;-63
2022/09/04 12:30:48;;;;;;;;;;;29.10;80.00;;;;;;5071116;28;19915;-63
2022/09/04 12:33:27;;;;;;;;;;;29.00;80.70;;;;;;5071085;28;20285;-64
2022/09/04 12:39:01;;;;;;;;;;;29.30;80.40;;;;;;5091295;27;19918;-64
2022/09/04 12:44:14;;;;;;;;;;;28.70;82.90;;;;;;5091363;28;19919;-64
2022/09/04 12:46:49;;;;;;;;;;;28.70;81.90;;;;;;5091433;28;19966;-64
2022/09/04 12:49:28;;;;;;;;;;;29.10;81.90;;;;;;5123867;28;19915;-64
2022/09/04 12:52:17;;;;;;;;;;;28.90;81.90;;;;;;5089811;28;20267;-63
2022/09/04 12:55:03;;;;;;;;;;;29.50;83.80;;;;;;5091006;28;19971;-63
2022/09/04 12:57:54;;;;;;;;;;;29.80;82.20;;;;;;5091182;28;20007;-63
2022/09/04 13:00:21;;;;;;;;;;;30.00;80.50;;;;;;5090951;28;19957;-64
2022/09/04 13:02:54;;;;;;;;;;;29.40;81.60;;;;;;5091077;28;19978;-63
2022/09/04 13:05:39;;;;;;;;;;;29.50;81.40;;;;;;5090832;28;19909;-64
2022/09/04 13:11:05;;;;;;;;;;;29.40;79.70;;;;;;5071069;28;19913;-64
2022/09/04 13:13:52;;;;;;;;;;;29.50;79.00;;;;;;5070915;28;19913;-63
2022/09/04 13:16:22;;;;;;;;;;;29.50;79.60;;;;;;5070888;28;19942;-63
2022/09/04 13:19:08;;;;;;;;;;;30.10;78.90;;;;;;5071127;28;20367;-63
2022/09/04 13:21:48;;;;;;;;;;;29.90;77.30;;;;;;5070779;28;19912;-62
2022/09/04 13:24:24;;;;;;;;;;;29.90;81.10;;;;;;5070972;28;20342;-63
2022/09/04 13:27:12;;;;;;;;;;;29.90;80.80;;;;;;5070748;28;20322;-63
2022/09/04 13:32:34;;;;;;;;;;;30.30;78.80;;;;;;5071011;28;19912;-63
2022/09/04 13:35:19;;;;;;;;;;;30.20;79.00;;;;;;5070948;28;19913;-64
2022/09/04 13:38:04;;;;;;;;;;;30.00;77.80;;;;;;5070905;28;19967;-64
2022/09/04 13:40:53;;;;;;;;;;;29.90;78.30;;;;;;5070768;28;19985;-64
2022/09/04 13:43:39;;;;;;;;;;;30.20;78.30;;;;;;5070719;28;19909;-64
2022/09/04 13:46:10;;;;;;;;;;;30.20;78.00;;;;;;5070729;28;19908;-63
2022/09/04 13:48:40;;;;;;;;;;;30.60;77.60;;;;;;5069759;28;19915;-61
2022/09/04 13:51:09;;;;;;;;;;;30.10;77.40;;;;;;5070512;28;19912;-61
2022/09/04 13:53:43;;;;;;;;;;;30.00;78.30;;;;;;5070818;28;19913;-62
2022/09/04 13:56:12;;;;;;;;;;;29.60;79.20;;;;;;5070485;28;19909;-62
2022/09/04 13:58:39;;;;;;;;;;;28.90;80.10;;;;;;5070716;28;20371;-63
2022/09/04 14:01:06;;;;;;;;;;;28.80;81.70;;;;;;5070662;28;19928;-62
2022/09/04 14:06:13;;;;;;;;;;;28.60;82.30;;;;;;5071116;28;19913;-63
2022/09/04 14:08:41;;;;;;;;;;;28.50;82.00;;;;;;5071158;28;19952;-63
2022/09/04 14:11:19;;;;;;;;;;;28.50;82.00;;;;;;5070857;28;19959;-62
2022/09/04 14:14:06;;;;;;;;;;;28.30;82.50;;;;;;5071094;28;20329;-63
2022/09/04 14:16:35;;;;;;;;;;;28.30;82.90;;;;;;5070785;28;19977;-63
2022/09/04 14:19:10;;;;;;;;;;;28.30;82.70;;;;;;5071007;28;19915;-62
2022/09/04 14:21:42;;;;;;;;;;;28.10;83.00;;;;;;5070959;28;19952;-62
2022/09/04 14:24:20;;;;;;;;;;;28.20;82.40;;;;;;5070573;28;19974;-62
2022/09/04 14:26:58;;;;;;;;;;;28.50;83.10;;;;;;5070827;28;19915;-62
2022/09/04 14:32:23;;;;;;;;;;;28.40;82.20;;;;;;5071124;28;19913;-63
2022/09/04 14:35:01;;;;;;;;;;;28.20;81.70;;;;;;5070905;28;20387;-63
2022/09/04 14:37:47;;;;;;;;;;;28.00;82.60;;;;;;5086178;28;19915;-63
2022/09/04 14:40:15;;;;;;;;;;;27.90;83.40;;;;;;5070853;28;20360;-63
2022/09/04 14:42:48;;;;;;;;;;;27.90;82.50;;;;;;5086671;28;19912;-63
2022/09/04 14:47:58;;;;;;;;;;;28.30;81.80;;;;;;5071116;28;19912;-63
2022/09/04 14:50:28;;;;;;;;;;;28.30;82.40;;;;;;5071227;28;19916;-64
2022/09/04 14:52:59;;;;;;;;;;;28.60;81.40;;;;;;5071199;28;19916;-64
2022/09/04 14:55:27;;;;;;;;;;;28.60;80.90;;;;;;5071092;28;19931;-64
2022/09/04 14:57:58;;;;;;;;;;;28.70;80.70;;;;;;5071046;28;19917;-63
2022/09/04 15:00:23;;;;;;;;;;;28.60;81.10;;;;;;5069539;28;20406;-63
2022/09/04 15:03:08;;;;;;;;;;;28.30;81.30;;;;;;5070713;28;20011;-64
2022/09/04 15:05:54;;;;;;;;;;;28.40;81.80;;;;;;5070522;28;19909;-64
2022/09/04 15:08:28;;;;;;;;;;;28.40;82.00;;;;;;5069227;28;19909;-63
2022/09/04 15:10:59;;;;;;;;;;;28.40;81.50;;;;;;5070799;28;20359;-63
2022/09/04 15:13:32;;;;;;;;;;;28.60;81.50;;;;;;5070721;28;19913;-63
2022/09/04 15:16:08;;;;;;;;;;;28.50;81.00;;;;;;5070689;28;19909;-64
2022/09/04 15:18:40;;;;;;;;;;;28.50;81.40;;;;;;5070602;28;20363;-64
2022/09/04 15:21:10;;;;;;;;;;;28.60;81.00;;;;;;5070563;28;20367;-63
2022/09/04 15:23:55;;;;;;;;;;;28.50;80.90;;;;;;5070251;28;19948;-64
2022/09/04 15:26:24;;;;;;;;;;;28.70;80.80;;;;;;5070028;28;19913;-64
2022/09/04 15:28:51;;;;;;;;;;;28.60;80.70;;;;;;5070369;28;19909;-64
2022/09/04 15:31:27;;;;;;;;;;;28.50;82.10;;;;;;5070402;28;19909;-61
2022/09/04 15:33:58;;;;;;;;;;;28.50;81.80;;;;;;5069952;28;20003;-63
2022/09/04 15:36:23;;;;;;;;;;;28.40;81.20;;;;;;5070202;28;19915;-64
2022/09/04 15:38:52;;;;;;;;;;;28.50;81.50;;;;;;5070197;28;20367;-64
2022/09/04 15:41:22;;;;;;;;;;;28.40;81.50;;;;;;5069819;28;19909;-63
2022/09/04 15:43:52;;;;;;;;;;;28.30;81.10;;;;;;5085454;28;19908;-63
2022/09/04 15:46:24;;;;;;;;;;;28.30;81.90;;;;;;5076635;28;20290;-63
2022/09/04 15:48:54;;;;;;;;;;;28.20;81.80;;;;;;5090277;28;19908;-63
2022/09/04 15:51:36;;;;;;;;;;;28.10;82.10;;;;;;5090220;28;20375;-63
2022/09/04 15:54:14;;;;;;;;;;;27.90;82.40;;;;;;5090210;28;20371;-64
2022/09/04 15:56:44;;;;;;;;;;;27.80;83.60;;;;;;5090107;28;20440;-64
2022/09/04 15:59:29;;;;;;;;;;;27.80;83.60;;;;;;5076881;28;19951;-64
2022/09/04 16:02:14;;;;;;;;;;;27.80;83.20;;;;;;5076190;28;19909;-63
2022/09/04 16:05:01;;;;;;;;;;;27.80;83.90;;;;;;5076011;28;19913;-63
2022/09/04 16:07:47;;;;;;;;;;;27.90;82.90;;;;;;5061685;28;19919;-63
2022/09/04 16:10:16;;;;;;;;;;;27.90;82.80;;;;;;5058048;28;19958;-64
2022/09/04 16:12:48;;;;;;;;;;;27.90;83.00;;;;;;5076368;28;20287;-63
2022/09/04 16:15:18;;;;;;;;;;;27.90;83.50;;;;;;5076291;28;20367;-64
2022/09/04 16:17:46;;;;;;;;;;;27.80;83.40;;;;;;5076323;28;19913;-64
2022/09/04 16:20:21;;;;;;;;;;;27.60;83.30;;;;;;5076346;28;20374;-65
2022/09/04 16:22:50;;;;;;;;;;;27.60;83.30;;;;;;5076273;28;20351;-64
2022/09/04 16:25:32;;;;;;;;;;;27.50;84.20;;;;;;5075926;28;19909;-64
2022/09/04 16:28:18;;;;;;;;;;;27.40;84.90;;;;;;5075829;28;20008;-64
2022/09/04 16:30:45;;;;;;;;;;;27.50;84.50;;;;;;5076270;28;19909;-64